Terminal Aerodrome Forecast
Issued by NWS

Home | Current Version | Previous Version | Text Only | Print | Product List | Glossary On
Versions: 1 2 3 4 5 6 7 8 9 10 11 12 13 14 15 16 17 18 19 20 21 22
000
FTUS44 KLZK 282300 RRA
TAFHRO
TAF
KHRO 282343Z 2900/2924 15005KT P6SM BKN250
      TEMPO 2906/2910 5SM BR
     FM291000 15005KT 5SM BR SCT005 SCT250
      TEMPO 2910/2913 1SM BR BKN005
     FM291400 19006KT P6SM SCT020 BKN250
     FM291800 19006KT P6SM VCTS SCT030CB BKN100=

USA.gov is the U.S. government's official web portal to all federal, state and local government web resources and services.